Skokie, Illinois
Current Conditions -  °F | °C
As of 4:51 AM on Wednesday 26 Nov 2014 (Local Time) from KORD Reporting Station
Clear Clear  
Wind Chill: 13°   Ceiling: Unl
Heat Index: 20°   Visibility: 7mi
Dew Point: 15°   Wind: 5mph
Humidity: 81%   Direction: 90°E
Pressure: 30.14"   Gusts: NA
Location:  42.03°N, 87.75°W
Report Text: KORD 261051Z 09004KT 7SM CLR M07/M09 A3014 RMK AO2 SLP216 T10671094
Loading
Personal Weather Stations






























Interactive Weather Map New forecast layout! Learn more

10-Day Weather Forecast

Advertisements
Track Severe Weather on mobile